Reecon Whale — 9HA2885 — position and weather

sailwx.info

Track history (hours):
 
Tides and Currents Weather Stations Pressure Air Temp Water Temp Dewpoint Dewpoint Depression Visibility Wind Speed Wind Dir Waves Ship Positions

Reecon Whale

Last reported at 2016-Apr-28 04:32 UTC. Time now 2016-May-05 08:37 UTC.
Position N 36°51' E 010°26'.

Length 145 m; draft 9 m.

Type: Ship. MMSI: 256579000.

Date/timePositionNaut miles runAvg speedWind from/ knotsBaromVisibWave heightAir tempDewpointWater temp
2016-Apr-28 04:32N 36°51' E 010°26'0 0.0
2016-Apr-28 03:29N 36°51' E 010°26'  
2016-Apr-25 09:33N 36°31' E 013°38'5 4.3
2016-Apr-25 08:19N 36°30' E 013°45'4 4.5
2016-Apr-25 07:31N 36°29' E 013°49'5 4.9
2016-Apr-25 06:33N 36°27' E 013°55'5 5.0
2016-Apr-25 05:34N 36°26' E 014°01'6 6.1
2016-Apr-25 04:33N 36°24' E 014°08'8 7.6
2016-Apr-25 03:33N 36°23' E 014°17'8 7.9
2016-Apr-25 02:33N 36°20' E 014°27'8 8.3
2016-Apr-25 01:33N 36°20' E 014°37'8 8.5
2016-Apr-25 00:33N 36°20' E 014°48'410 9.8
2016-Apr-23 06:33N 36°27' E 023°16'1313.1
2016-Apr-23 05:33N 36°39' E 023°23'1110.6
2016-Apr-23 04:31N 36°48' E 023°30'1010.4
2016-Apr-23 03:33N 36°58' E 023°35'1010.2
2016-Apr-23 02:33N 37°08' E 023°36'1110.8
2016-Apr-23 01:33N 37°18' E 023°39'1110.7
2016-Apr-23 00:33N 37°29' E 023°40'1110.8
2016-Apr-22 23:33N 37°40' E 023°41'1010.5
2016-Apr-22 22:33N 37°50' E 023°37'8 7.5
2016-Apr-22 21:32N 37°57' E 023°36'0 0.0
2016-Apr-22 20:32N 37°57' E 023°36'0 0.0
2016-Apr-22 19:32N 37°57' E 023°36'0 0.0
2016-Apr-22 18:32N 37°57' E 023°36'0 0.0
2016-Apr-22 17:32N 37°57' E 023°36'0 0.0
2016-Apr-22 16:32N 37°57' E 023°36'0 0.0
2016-Apr-22 15:32N 37°57' E 023°36'0 0.0
2016-Apr-22 14:31N 37°57' E 023°36'0 0.0
2016-Apr-22 13:31N 37°57' E 023°36'0 0.0
2016-Apr-22 12:31N 37°57' E 023°36'0 0.0
2016-Apr-22 11:31N 37°57' E 023°36'0 0.0
2016-Apr-22 10:31N 37°57' E 023°36'0 0.0
2016-Apr-22 09:31N 37°57' E 023°36'0 0.0
2016-Apr-22 08:31N 37°57' E 023°36'0 0.0
2016-Apr-22 07:31N 37°57' E 023°36'0 0.0
2016-Apr-22 06:31N 37°57' E 023°36'0 0.0
2016-Apr-22 05:31N 37°57' E 023°36'0 0.0
2016-Apr-22 04:31N 37°57' E 023°36'0 0.0
2016-Apr-22 03:31N 37°57' E 023°36'0 0.0
2016-Apr-22 02:31N 37°57' E 023°36'0 0.0
2016-Apr-22 01:31N 37°57' E 023°36'0 0.0
2016-Apr-22 00:31N 37°57' E 023°36'0 0.0
2016-Apr-21 23:31N 37°57' E 023°36'0 0.0
2016-Apr-21 22:31N 37°57' E 023°36'0 0.0
2016-Apr-21 21:34N 37°57' E 023°36'3 2.8
2016-Apr-21 20:33N 37°55' E 023°37'3 2.9
2016-Apr-21 19:33N 37°52' E 023°38'4 3.7
2016-Apr-21 18:33N 37°49' E 023°40'4 4.1
2016-Apr-21 17:33N 37°45' E 023°42'7 7.3
2016-Apr-21 16:33N 37°38' E 023°45'10 9.7
2016-Apr-21 15:33N 37°28' E 023°43'1010.2
2016-Apr-21 14:33N 37°18' E 023°41'1010.0
2016-Apr-21 13:33N 37°08' E 023°38'396 9.2
2016-Apr-19 18:28N 36°20' E 015°27'1910.2
2016-Apr-19 16:33N 36°19' E 015°03'1010.4
2016-Apr-19 15:33N 36°19' E 014°50'1110.7
2016-Apr-19 14:34N 36°20' E 014°37'1110.8
2016-Apr-19 13:34N 36°21' E 014°24'1110.7
2016-Apr-19 12:33N 36°24' E 014°11'1110.5
2016-Apr-19 11:33N 36°27' E 013°58'1110.8
2016-Apr-19 10:34N 36°30' E 013°46'1111.0
2016-Apr-19 09:33N 36°34' E 013°32'1312.9
2016-Apr-19 08:34N 36°38' E 013°17'1413.6
2016-Apr-19 07:33N 36°42' E 013°01'1110.9
2016-Apr-19 06:33N 36°45' E 012°48'1110.9
2016-Apr-19 05:33N 36°48' E 012°35'1110.6
2016-Apr-19 04:34N 36°52' E 012°23'1010.4
2016-Apr-19 03:33N 36°55' E 012°11'1010.2
2016-Apr-19 02:33N 36°58' E 011°58'1010.1
2016-Apr-19 01:33N 37°01' E 011°46'1110.7
2016-Apr-19 00:33N 37°05' E 011°34'1111.0
2016-Apr-18 23:33N 37°08' E 011°20'1211.6
2016-Apr-18 22:33N 37°11' E 011°07'1111.1
2016-Apr-18 21:33N 37°13' E 010°53'1110.7
2016-Apr-18 20:32N 37°13' E 010°39'  
Track history (hours):
 
Tides and Currents Weather Stations Pressure Air Temp Water Temp Dewpoint Dewpoint Depression Visibility Wind Speed Wind Dir Waves Ship Positions

Reecon Whale

Last reported at 2016-Apr-28 04:32 UTC. Time now 2016-May-05 08:37 UTC.
Position N 36°51' E 010°26'.

Length 145 m; draft 9 m.

Type: Ship. MMSI: 256579000.

Date/timePositionNaut miles runAvg speedWind from/ knotsBaromVisibWave heightAir tempDewpointWater temp
2016-Apr-28 04:32N 36°51' E 010°26'0 0.0
2016-Apr-28 03:29N 36°51' E 010°26'  
2016-Apr-25 09:33N 36°31' E 013°38'5 4.3
2016-Apr-25 08:19N 36°30' E 013°45'4 4.5
2016-Apr-25 07:31N 36°29' E 013°49'5 4.9
2016-Apr-25 06:33N 36°27' E 013°55'5 5.0
2016-Apr-25 05:34N 36°26' E 014°01'6 6.1
2016-Apr-25 04:33N 36°24' E 014°08'8 7.6
2016-Apr-25 03:33N 36°23' E 014°17'8 7.9
2016-Apr-25 02:33N 36°20' E 014°27'8 8.3
2016-Apr-25 01:33N 36°20' E 014°37'8 8.5
2016-Apr-25 00:33N 36°20' E 014°48'410 9.8
2016-Apr-23 06:33N 36°27' E 023°16'1313.1
2016-Apr-23 05:33N 36°39' E 023°23'1110.6
2016-Apr-23 04:31N 36°48' E 023°30'1010.4
2016-Apr-23 03:33N 36°58' E 023°35'1010.2
2016-Apr-23 02:33N 37°08' E 023°36'1110.8
2016-Apr-23 01:33N 37°18' E 023°39'1110.7
2016-Apr-23 00:33N 37°29' E 023°40'1110.8
2016-Apr-22 23:33N 37°40' E 023°41'1010.5
2016-Apr-22 22:33N 37°50' E 023°37'8 7.5
2016-Apr-22 21:32N 37°57' E 023°36'0 0.0
2016-Apr-22 20:32N 37°57' E 023°36'0 0.0
2016-Apr-22 19:32N 37°57' E 023°36'0 0.0
2016-Apr-22 18:32N 37°57' E 023°36'0 0.0
2016-Apr-22 17:32N 37°57' E 023°36'0 0.0
2016-Apr-22 16:32N 37°57' E 023°36'0 0.0
2016-Apr-22 15:32N 37°57' E 023°36'0 0.0
2016-Apr-22 14:31N 37°57' E 023°36'0 0.0
2016-Apr-22 13:31N 37°57' E 023°36'0 0.0
2016-Apr-22 12:31N 37°57' E 023°36'0 0.0
2016-Apr-22 11:31N 37°57' E 023°36'0 0.0
2016-Apr-22 10:31N 37°57' E 023°36'0 0.0
2016-Apr-22 09:31N 37°57' E 023°36'0 0.0
2016-Apr-22 08:31N 37°57' E 023°36'0 0.0
2016-Apr-22 07:31N 37°57' E 023°36'0 0.0
2016-Apr-22 06:31N 37°57' E 023°36'0 0.0
2016-Apr-22 05:31N 37°57' E 023°36'0 0.0
2016-Apr-22 04:31N 37°57' E 023°36'0 0.0
2016-Apr-22 03:31N 37°57' E 023°36'0 0.0
2016-Apr-22 02:31N 37°57' E 023°36'0 0.0
2016-Apr-22 01:31N 37°57' E 023°36'0 0.0
2016-Apr-22 00:31N 37°57' E 023°36'0 0.0
2016-Apr-21 23:31N 37°57' E 023°36'0 0.0
2016-Apr-21 22:31N 37°57' E 023°36'0 0.0
2016-Apr-21 21:34N 37°57' E 023°36'3 2.8
2016-Apr-21 20:33N 37°55' E 023°37'3 2.9
2016-Apr-21 19:33N 37°52' E 023°38'4 3.7
2016-Apr-21 18:33N 37°49' E 023°40'4 4.1
2016-Apr-21 17:33N 37°45' E 023°42'7 7.3
2016-Apr-21 16:33N 37°38' E 023°45'10 9.7
2016-Apr-21 15:33N 37°28' E 023°43'1010.2
2016-Apr-21 14:33N 37°18' E 023°41'1010.0
2016-Apr-21 13:33N 37°08' E 023°38'396 9.2
2016-Apr-19 18:28N 36°20' E 015°27'1910.2
2016-Apr-19 16:33N 36°19' E 015°03'1010.4
2016-Apr-19 15:33N 36°19' E 014°50'1110.7
2016-Apr-19 14:34N 36°20' E 014°37'1110.8
2016-Apr-19 13:34N 36°21' E 014°24'1110.7
2016-Apr-19 12:33N 36°24' E 014°11'1110.5
2016-Apr-19 11:33N 36°27' E 013°58'1110.8
2016-Apr-19 10:34N 36°30' E 013°46'1111.0
2016-Apr-19 09:33N 36°34' E 013°32'1312.9
2016-Apr-19 08:34N 36°38' E 013°17'1413.6
2016-Apr-19 07:33N 36°42' E 013°01'1110.9
2016-Apr-19 06:33N 36°45' E 012°48'1110.9
2016-Apr-19 05:33N 36°48' E 012°35'1110.6
2016-Apr-19 04:34N 36°52' E 012°23'1010.4
2016-Apr-19 03:33N 36°55' E 012°11'1010.2
2016-Apr-19 02:33N 36°58' E 011°58'1010.1
2016-Apr-19 01:33N 37°01' E 011°46'1110.7
2016-Apr-19 00:33N 37°05' E 011°34'1111.0
2016-Apr-18 23:33N 37°08' E 011°20'1211.6
2016-Apr-18 22:33N 37°11' E 011°07'1111.1
2016-Apr-18 21:33N 37°13' E 010°53'1110.7
2016-Apr-18 20:32N 37°13' E 010°39'  

Dump ship's entire track history